createdAt,value
2023-04-30T00:00:22.345Z,1007.60
2023-04-30T00:01:22.306Z,1007.61
2023-04-30T00:02:21.383Z,1007.64
2023-04-30T00:03:21.426Z,1007.65
2023-04-30T00:04:21.396Z,1007.66
2023-04-30T00:05:21.287Z,1007.70
2023-04-30T00:06:21.320Z,1007.70
2023-04-30T00:07:21.228Z,1007.74
2023-04-30T00:08:21.243Z,1007.70
2023-04-30T00:09:21.234Z,1007.75
2023-04-30T00:10:21.208Z,1007.72
2023-04-30T00:11:21.233Z,1007.79
2023-04-30T00:12:21.187Z,1007.84
2023-04-30T00:13:21.173Z,1007.83
2023-04-30T00:14:22.211Z,1007.87
2023-04-30T00:15:21.164Z,1007.83
2023-04-30T00:16:22.168Z,1007.91
2023-04-30T00:17:21.165Z,1007.92
2023-04-30T00:18:21.142Z,1007.91
2023-04-30T00:19:21.128Z,1007.92
2023-04-30T00:20:21.123Z,1007.86
2023-04-30T00:21:21.102Z,1007.91
2023-04-30T00:22:22.063Z,1007.91
2023-04-30T00:23:22.073Z,1007.95
2023-04-30T00:24:21.064Z,1007.91
2023-04-30T00:25:22.066Z,1007.92
2023-04-30T00:26:21.055Z,1007.91
2023-04-30T00:27:21.033Z,1008.02
2023-04-30T00:28:21.024Z,1008.01
2023-04-30T00:29:20.998Z,1008.01
2023-04-30T00:30:20.983Z,1008.02
2023-04-30T00:31:21.016Z,1008.03
2023-04-30T00:32:21.133Z,1008.01
2023-04-30T00:33:21.966Z,1008.03
2023-04-30T00:34:20.949Z,1008.12
2023-04-30T00:35:20.950Z,1008.11
2023-04-30T00:36:20.926Z,1008.09
2023-04-30T00:37:20.932Z,1008.15
2023-04-30T00:38:21.923Z,1008.09
2023-04-30T00:39:20.900Z,1008.15
2023-04-30T00:40:20.904Z,1008.16
2023-04-30T00:41:20.873Z,1008.18
2023-04-30T00:42:20.874Z,1008.17
2023-04-30T00:43:20.872Z,1008.11
2023-04-30T00:44:20.847Z,1008.15
2023-04-30T00:45:20.825Z,1008.13
2023-04-30T00:46:21.910Z,1008.15
2023-04-30T00:47:20.864Z,1008.18
2023-04-30T00:48:20.791Z,1008.25
2023-04-30T00:49:20.780Z,1008.13
2023-04-30T00:50:20.800Z,1008.16
2023-04-30T00:51:20.777Z,1008.15
2023-04-30T00:52:20.770Z,1008.17
2023-04-30T00:53:20.788Z,1008.22
2023-04-30T00:54:20.715Z,1008.16
2023-04-30T00:55:21.712Z,1008.21
2023-04-30T00:56:20.720Z,1008.22
2023-04-30T00:57:21.682Z,1008.17
2023-04-30T00:58:20.700Z,1008.22
2023-04-30T00:59:20.734Z,1008.23
2023-04-30T01:00:20.667Z,1008.24
2023-04-30T01:01:20.727Z,1008.28
2023-04-30T01:02:20.740Z,1008.28
2023-04-30T01:03:21.738Z,1008.27
2023-04-30T01:04:20.637Z,1008.29
2023-04-30T01:05:21.641Z,1008.30
2023-04-30T01:06:21.656Z,1008.29
2023-04-30T01:07:20.601Z,1008.29
2023-04-30T01:08:20.607Z,1008.27
2023-04-30T01:09:21.569Z,1008.29
2023-04-30T01:10:20.550Z,1008.30
2023-04-30T01:11:20.541Z,1008.27
2023-04-30T01:12:20.521Z,1008.31
2023-04-30T01:13:20.513Z,1008.30
2023-04-30T01:14:20.526Z,1008.31
2023-04-30T01:15:21.488Z,1008.37
2023-04-30T01:16:20.605Z,1008.31
2023-04-30T01:17:21.492Z,1008.38
2023-04-30T01:18:20.614Z,1008.34
2023-04-30T01:19:20.459Z,1008.33
2023-04-30T01:20:20.448Z,1008.46
2023-04-30T01:21:20.456Z,1008.42
2023-04-30T01:22:20.423Z,1008.39
2023-04-30T01:23:20.476Z,1008.43
2023-04-30T01:24:20.409Z,1008.43
2023-04-30T01:25:20.393Z,1008.44
2023-04-30T01:26:20.370Z,1008.43
2023-04-30T01:27:20.391Z,1008.45
2023-04-30T01:28:20.355Z,1008.48
2023-04-30T01:29:20.396Z,1008.48
2023-04-30T01:30:21.325Z,1008.48
2023-04-30T01:31:20.320Z,1008.51
2023-04-30T01:32:21.311Z,1008.54
2023-04-30T01:33:20.314Z,1008.56
2023-04-30T01:34:21.475Z,1008.51
2023-04-30T01:35:20.294Z,1008.51
2023-04-30T01:36:20.285Z,1008.55
2023-04-30T01:37:20.252Z,1008.57
2023-04-30T01:38:20.276Z,1008.63
2023-04-30T01:39:20.225Z,1008.59
2023-04-30T01:40:20.208Z,1008.57
2023-04-30T01:41:21.235Z,1008.64
2023-04-30T01:42:21.267Z,1008.62
2023-04-30T01:43:21.185Z,1008.62
2023-04-30T01:44:20.176Z,1008.65
2023-04-30T01:45:20.163Z,1008.64
2023-04-30T01:46:20.144Z,1008.65
2023-04-30T01:47:20.273Z,1008.63
2023-04-30T01:48:21.152Z,1008.72
2023-04-30T01:49:21.151Z,1008.62
2023-04-30T01:50:20.121Z,1008.67
2023-04-30T01:51:20.091Z,1008.68
2023-04-30T01:52:20.087Z,1008.71
2023-04-30T01:53:20.103Z,1008.72
2023-04-30T01:54:20.115Z,1008.78
2023-04-30T01:55:20.068Z,1008.71
2023-04-30T01:56:20.061Z,1008.78
2023-04-30T01:57:20.058Z,1008.85
2023-04-30T01:58:20.028Z,1008.85
2023-04-30T01:59:20.035Z,1008.82
2023-04-30T02:00:21.028Z,1008.90
2023-04-30T02:01:20.010Z,1008.90
2023-04-30T02:02:20.145Z,1008.82
2023-04-30T02:03:20.060Z,1008.86
2023-04-30T02:04:19.962Z,1008.87
2023-04-30T02:05:20.958Z,1008.99
2023-04-30T02:06:19.986Z,1008.90
2023-04-30T02:07:19.934Z,1008.92
2023-04-30T02:08:19.936Z,1008.89
2023-04-30T02:09:19.912Z,1008.95
2023-04-30T02:10:19.917Z,1008.94
2023-04-30T02:11:19.917Z,1008.96
2023-04-30T02:12:19.936Z,1008.97
2023-04-30T02:13:19.859Z,1008.97
2023-04-30T02:14:19.861Z,1008.96
2023-04-30T02:15:19.839Z,1009.03
2023-04-30T02:16:19.876Z,1008.96
2023-04-30T02:17:19.826Z,1009.00
2023-04-30T02:18:19.853Z,1008.96
2023-04-30T02:19:19.803Z,1009.01
2023-04-30T02:20:20.834Z,1009.00
2023-04-30T02:21:19.774Z,1009.02
2023-04-30T02:22:19.768Z,1009.04
2023-04-30T02:23:19.744Z,1009.02
2023-04-30T02:24:19.742Z,1008.99
2023-04-30T02:25:20.727Z,1008.95
2023-04-30T02:26:19.778Z,1008.99
2023-04-30T02:27:19.704Z,1009.00
2023-04-30T02:28:19.701Z,1008.95
2023-04-30T02:29:19.680Z,1009.03
2023-04-30T02:30:19.662Z,1009.02
2023-04-30T02:31:19.728Z,1009.08
2023-04-30T02:32:19.643Z,1009.10
2023-04-30T02:33:19.619Z,1009.09
2023-04-30T02:34:19.622Z,1009.11
2023-04-30T02:35:19.641Z,1009.14
2023-04-30T02:36:19.602Z,1009.16
2023-04-30T02:37:19.615Z,1009.20
2023-04-30T02:38:19.584Z,1009.16
2023-04-30T02:39:19.583Z,1009.20
2023-04-30T02:40:19.564Z,1009.16
2023-04-30T02:41:19.540Z,1009.12
2023-04-30T02:42:19.556Z,1009.11
2023-04-30T02:43:19.546Z,1009.15
2023-04-30T02:44:19.507Z,1009.18
2023-04-30T02:45:19.500Z,1009.13
2023-04-30T02:46:19.577Z,1009.12
2023-04-30T02:47:19.471Z,1009.15
2023-04-30T02:48:19.487Z,1009.14
2023-04-30T02:49:20.438Z,1009.19
2023-04-30T02:50:20.443Z,1009.18
2023-04-30T02:51:19.424Z,1009.19
2023-04-30T02:52:19.432Z,1009.27
2023-04-30T02:53:19.431Z,1009.25
2023-04-30T02:54:19.420Z,1009.24
2023-04-30T02:55:20.374Z,1009.23
2023-04-30T02:56:19.407Z,1009.26
2023-04-30T02:57:19.384Z,1009.22
2023-04-30T02:58:19.392Z,1009.26
2023-04-30T02:59:19.348Z,1009.25
2023-04-30T03:00:19.332Z,1009.27
2023-04-30T03:01:19.340Z,1009.26
2023-04-30T03:02:19.395Z,1009.31
2023-04-30T03:03:20.461Z,1009.35
2023-04-30T03:04:20.305Z,1009.32
2023-04-30T03:05:19.276Z,1009.27
2023-04-30T03:06:19.286Z,1009.26
2023-04-30T03:07:19.252Z,1009.30
2023-04-30T03:08:19.243Z,1009.27
2023-04-30T03:09:19.277Z,1009.30
2023-04-30T03:10:19.309Z,1009.32
2023-04-30T03:11:19.229Z,1009.29
2023-04-30T03:12:19.197Z,1009.33
2023-04-30T03:13:19.200Z,1009.26
2023-04-30T03:14:19.209Z,1009.33
2023-04-30T03:15:19.176Z,1009.37
2023-04-30T03:16:19.181Z,1009.42
2023-04-30T03:17:19.157Z,1009.45
2023-04-30T03:18:19.129Z,1009.36
2023-04-30T03:19:19.177Z,1009.40
2023-04-30T03:20:19.221Z,1009.36
2023-04-30T03:21:19.112Z,1009.39
2023-04-30T03:22:19.096Z,1009.42
2023-04-30T03:23:20.084Z,1009.40
2023-04-30T03:24:19.082Z,1009.38
2023-04-30T03:25:19.093Z,1009.47
2023-04-30T03:26:19.061Z,1009.39
2023-04-30T03:27:19.063Z,1009.40
2023-04-30T03:28:19.041Z,1009.45
2023-04-30T03:29:19.053Z,1009.46
2023-04-30T03:30:19.067Z,1009.47
2023-04-30T03:31:19.020Z,1009.45
2023-04-30T03:32:19.984Z,1009.51
2023-04-30T03:33:20.031Z,1009.51
2023-04-30T03:34:19.975Z,1009.53
2023-04-30T03:35:18.958Z,1009.53
2023-04-30T03:36:18.986Z,1009.52
2023-04-30T03:37:18.942Z,1009.53
2023-04-30T03:38:18.933Z,1009.48
2023-04-30T03:39:18.908Z,1009.52
2023-04-30T03:40:18.912Z,1009.50
2023-04-30T03:41:18.890Z,1009.56
2023-04-30T03:42:19.912Z,1009.56
2023-04-30T03:43:19.382Z,1009.56
2023-04-30T03:44:18.881Z,1009.62
2023-04-30T03:45:18.896Z,1009.57
2023-04-30T03:46:18.926Z,1009.60
2023-04-30T03:47:18.822Z,1009.56
2023-04-30T03:48:18.817Z,1009.56
2023-04-30T03:49:19.807Z,1009.56
2023-04-30T03:50:18.840Z,1009.60
2023-04-30T03:51:18.780Z,1009.61
2023-04-30T03:52:19.760Z,1009.63
2023-04-30T03:53:19.790Z,1009.63
2023-04-30T03:54:18.755Z,1009.60
2023-04-30T03:55:18.735Z,1009.63
2023-04-30T03:56:18.755Z,1009.64
2023-04-30T03:57:18.725Z,1009.66
2023-04-30T03:58:18.758Z,1009.68
2023-04-30T03:59:19.706Z,1009.71
2023-04-30T04:00:18.680Z,1009.65
2023-04-30T04:01:18.727Z,1009.70
2023-04-30T04:02:18.801Z,1009.70
2023-04-30T04:03:18.718Z,1009.72
2023-04-30T04:04:18.724Z,1009.70
2023-04-30T04:05:18.638Z,1009.67
2023-04-30T04:06:18.656Z,1009.66
2023-04-30T04:07:18.628Z,1009.73
2023-04-30T04:08:18.597Z,1009.72
2023-04-30T04:09:18.639Z,1009.76
2023-04-30T04:10:19.584Z,1009.77
2023-04-30T04:11:18.596Z,1009.86
2023-04-30T04:12:18.563Z,1009.82
2023-04-30T04:13:19.544Z,1009.83
2023-04-30T04:14:18.538Z,1009.86
2023-04-30T04:15:18.556Z,1009.84
2023-04-30T04:16:18.565Z,1009.82
2023-04-30T04:17:18.543Z,1009.84
2023-04-30T04:18:18.532Z,1009.92
2023-04-30T04:19:18.510Z,1009.88
2023-04-30T04:20:18.500Z,1009.89
2023-04-30T04:21:18.473Z,1009.99
2023-04-30T04:22:19.464Z,1010.03
2023-04-30T04:23:18.429Z,1009.96
2023-04-30T04:24:18.433Z,1009.99
2023-04-30T04:25:19.427Z,1010.02
2023-04-30T04:26:18.403Z,1010.05
2023-04-30T04:27:18.421Z,1010.03
2023-04-30T04:28:18.386Z,1010.08
2023-04-30T04:29:18.384Z,1010.05
2023-04-30T04:30:18.374Z,1010.12
2023-04-30T04:31:31.048Z,1010.12
2023-04-30T04:32:18.350Z,1010.11
2023-04-30T04:33:18.345Z,1010.18
2023-04-30T04:34:18.358Z,1010.15
2023-04-30T04:35:18.317Z,1010.14
2023-04-30T04:36:19.303Z,1010.14
2023-04-30T04:37:19.295Z,1010.14
2023-04-30T04:38:18.289Z,1010.11
2023-04-30T04:39:18.252Z,1010.15
2023-04-30T04:40:18.285Z,1010.14
2023-04-30T04:41:19.239Z,1010.13
2023-04-30T04:42:18.225Z,1010.18
2023-04-30T04:43:18.233Z,1010.13
2023-04-30T04:44:18.227Z,1010.15
2023-04-30T04:45:18.206Z,1010.12
2023-04-30T04:46:18.245Z,1010.19
2023-04-30T04:47:18.183Z,1010.23
2023-04-30T04:48:18.185Z,1010.20
2023-04-30T04:49:18.155Z,1010.29
2023-04-30T04:50:18.358Z,1010.30
2023-04-30T04:51:18.149Z,1010.27
2023-04-30T04:52:18.111Z,1010.28
2023-04-30T04:53:18.119Z,1010.30
2023-04-30T04:54:18.110Z,1010.32
2023-04-30T04:55:18.103Z,1010.32
2023-04-30T04:56:18.093Z,1010.40
2023-04-30T04:57:18.106Z,1010.34
2023-04-30T04:58:18.065Z,1010.32
2023-04-30T04:59:18.111Z,1010.33
2023-04-30T05:00:18.041Z,1010.41
2023-04-30T05:01:18.051Z,1010.46
2023-04-30T05:02:18.044Z,1010.39
2023-04-30T05:03:19.037Z,1010.42
2023-04-30T05:04:17.979Z,1010.46
2023-04-30T05:05:19.013Z,1010.48
2023-04-30T05:06:18.023Z,1010.49
2023-04-30T05:07:17.967Z,1010.51
2023-04-30T05:08:17.951Z,1010.57
2023-04-30T05:09:17.932Z,1010.61
2023-04-30T05:10:18.972Z,1010.60
2023-04-30T05:11:17.949Z,1010.61
2023-04-30T05:12:17.907Z,1010.60
2023-04-30T05:13:17.892Z,1010.53
2023-04-30T05:14:17.921Z,1010.55
2023-04-30T05:15:17.888Z,1010.53
2023-04-30T05:16:17.935Z,1010.55
2023-04-30T05:17:17.857Z,1010.53
2023-04-30T05:18:17.840Z,1010.61
2023-04-30T05:19:17.854Z,1010.56
2023-04-30T05:20:17.850Z,1010.61
2023-04-30T05:21:17.857Z,1010.59
2023-04-30T05:22:17.802Z,1010.56
2023-04-30T05:23:17.870Z,1010.64
2023-04-30T05:24:17.759Z,1010.56
2023-04-30T05:25:17.776Z,1010.62
2023-04-30T05:26:17.760Z,1010.55
2023-04-30T05:27:17.778Z,1010.62
2023-04-30T05:28:17.741Z,1010.60
2023-04-30T05:29:17.760Z,1010.62
2023-04-30T05:30:17.716Z,1010.69
2023-04-30T05:31:20.761Z,1010.65
2023-04-30T05:32:18.696Z,1010.69
2023-04-30T05:33:17.691Z,1010.66
2023-04-30T05:34:17.689Z,1010.63
2023-04-30T05:35:17.657Z,1010.66
2023-04-30T05:36:17.640Z,1010.73
2023-04-30T05:37:17.664Z,1010.72
2023-04-30T05:38:17.685Z,1010.74
2023-04-30T05:39:17.627Z,1010.75
2023-04-30T05:40:18.617Z,1010.80
2023-04-30T05:41:18.595Z,1010.76
2023-04-30T05:42:17.593Z,1010.73
2023-04-30T05:43:17.586Z,1010.75
2023-04-30T05:44:17.544Z,1010.77
2023-04-30T05:45:17.639Z,1010.78
2023-04-30T05:46:17.587Z,1010.79
2023-04-30T05:47:17.532Z,1010.82
2023-04-30T05:48:17.575Z,1010.82
2023-04-30T05:49:17.514Z,1010.89
2023-04-30T05:50:18.490Z,1010.85
2023-04-30T05:51:17.498Z,1010.91
2023-04-30T05:52:17.495Z,1010.86
2023-04-30T05:53:17.491Z,1010.91
2023-04-30T05:54:18.455Z,1010.87
2023-04-30T05:55:17.441Z,1010.88
2023-04-30T05:56:17.495Z,1010.81
2023-04-30T05:57:17.415Z,1010.83
2023-04-30T05:58:18.396Z,1010.86
2023-04-30T05:59:17.429Z,1010.85
2023-04-30T06:00:17.393Z,1010.88
2023-04-30T06:01:17.388Z,1010.90
2023-04-30T06:02:17.426Z,1010.89
2023-04-30T06:03:17.393Z,1010.88
2023-04-30T06:04:18.339Z,1010.85
2023-04-30T06:05:17.325Z,1010.86
2023-04-30T06:06:17.361Z,1010.88
2023-04-30T06:07:17.312Z,1010.84
2023-04-30T06:08:17.313Z,1010.84
2023-04-30T06:09:17.333Z,1010.83
2023-04-30T06:10:17.312Z,1010.82
2023-04-30T06:11:17.255Z,1010.88
2023-04-30T06:12:17.265Z,1010.87
2023-04-30T06:13:17.275Z,1010.81
2023-04-30T06:14:17.246Z,1010.87
2023-04-30T06:15:18.218Z,1010.88
2023-04-30T06:16:17.290Z,1010.86
2023-04-30T06:17:17.198Z,1010.90
2023-04-30T06:18:18.367Z,1010.88
2023-04-30T06:19:17.185Z,1010.94
2023-04-30T06:20:17.170Z,1010.89
2023-04-30T06:21:17.149Z,1010.97
2023-04-30T06:22:17.149Z,1010.98
2023-04-30T06:23:17.141Z,1010.94
2023-04-30T06:24:18.155Z,1010.96
2023-04-30T06:25:17.110Z,1010.93
2023-04-30T06:26:17.114Z,1010.97
2023-04-30T06:27:17.089Z,1010.92
2023-04-30T06:28:17.060Z,1010.96
2023-04-30T06:29:17.093Z,1010.93
2023-04-30T06:30:17.069Z,1010.94
2023-04-30T06:31:17.074Z,1010.89
2023-04-30T06:32:17.015Z,1010.94
2023-04-30T06:33:18.033Z,1010.89
2023-04-30T06:34:16.998Z,1010.88
2023-04-30T06:35:18.023Z,1010.87
2023-04-30T06:36:16.986Z,1010.90
2023-04-30T06:37:16.970Z,1010.98
2023-04-30T06:38:17.022Z,1010.97
2023-04-30T06:39:16.960Z,1010.97
2023-04-30T06:40:17.922Z,1010.94
2023-04-30T06:41:18.056Z,1011.01
2023-04-30T06:42:17.040Z,1010.99
2023-04-30T06:43:16.912Z,1010.90
2023-04-30T06:44:16.906Z,1010.97
2023-04-30T06:45:16.899Z,1010.96
2023-04-30T06:46:16.913Z,1010.95
2023-04-30T06:47:16.966Z,1010.98
2023-04-30T06:48:16.855Z,1011.01
2023-04-30T06:49:17.839Z,1011.01
2023-04-30T06:50:16.836Z,1010.96
2023-04-30T06:51:16.827Z,1010.92
2023-04-30T06:52:17.842Z,1010.94
2023-04-30T06:53:16.806Z,1010.92
2023-04-30T06:54:16.824Z,1010.92
2023-04-30T06:55:17.774Z,1010.92
2023-04-30T06:56:16.780Z,1010.93
2023-04-30T06:57:16.759Z,1010.95
2023-04-30T06:58:16.790Z,1010.99
2023-04-30T06:59:16.724Z,1010.98
2023-04-30T07:00:17.738Z,1011.01
2023-04-30T07:01:16.732Z,1011.01
2023-04-30T07:02:16.730Z,1011.03
2023-04-30T07:03:16.782Z,1011.03
2023-04-30T07:04:16.674Z,1011.05
2023-04-30T07:05:17.694Z,1011.04
2023-04-30T07:06:17.690Z,1011.09
2023-04-30T07:07:16.654Z,1011.09
2023-04-30T07:08:16.632Z,1011.10
2023-04-30T07:09:16.648Z,1011.04
2023-04-30T07:10:17.288Z,1011.08
2023-04-30T07:11:17.598Z,1011.06
2023-04-30T07:12:16.604Z,1011.06
2023-04-30T07:13:16.613Z,1011.07
2023-04-30T07:14:16.668Z,1011.08
2023-04-30T07:15:16.568Z,1011.06
2023-04-30T07:16:16.650Z,1011.08
2023-04-30T07:17:17.535Z,1011.10
2023-04-30T07:18:16.527Z,1011.10
2023-04-30T07:19:16.528Z,1011.09
2023-04-30T07:20:17.538Z,1011.08
2023-04-30T07:21:16.485Z,1011.06
2023-04-30T07:22:16.481Z,1011.19
2023-04-30T07:23:16.495Z,1011.10
2023-04-30T07:24:16.474Z,1011.15
2023-04-30T07:25:16.501Z,1011.12
2023-04-30T07:26:16.468Z,1011.08
2023-04-30T07:27:16.419Z,1011.10
2023-04-30T07:28:16.418Z,1011.10
2023-04-30T07:29:16.399Z,1011.08
2023-04-30T07:30:16.417Z,1011.04
2023-04-30T07:31:16.395Z,1011.04
2023-04-30T07:32:16.413Z,1011.02
2023-04-30T07:33:16.449Z,1011.03
2023-04-30T07:34:16.345Z,1011.02
2023-04-30T07:35:16.343Z,1011.09
2023-04-30T07:36:16.308Z,1011.07
2023-04-30T07:37:17.331Z,1011.13
2023-04-30T07:38:17.312Z,1011.14
2023-04-30T07:39:16.301Z,1011.19
2023-04-30T07:40:25.364Z,1011.16
2023-04-30T07:41:17.269Z,1011.08
2023-04-30T07:42:17.264Z,1011.14
2023-04-30T07:43:16.283Z,1011.13
2023-04-30T07:44:16.258Z,1011.13
2023-04-30T07:45:16.227Z,1011.15
2023-04-30T07:46:17.274Z,1011.17
2023-04-30T07:47:16.210Z,1011.12
2023-04-30T07:48:16.190Z,1011.06
2023-04-30T07:49:16.206Z,1010.98
2023-04-30T07:50:16.172Z,1011.11
2023-04-30T07:51:16.171Z,1011.10
2023-04-30T07:52:16.174Z,1011.08
2023-04-30T07:53:16.141Z,1011.17
2023-04-30T07:54:17.122Z,1011.13
2023-04-30T07:55:16.127Z,1011.16
2023-04-30T07:56:16.155Z,1011.06
2023-04-30T07:57:16.103Z,1011.13
2023-04-30T07:58:16.078Z,1011.13
2023-04-30T07:59:17.055Z,1011.16
2023-04-30T08:00:17.062Z,1011.13
2023-04-30T08:01:16.050Z,1011.08
2023-04-30T08:02:17.102Z,1011.07
2023-04-30T08:03:16.106Z,1011.11
2023-04-30T08:04:16.049Z,1011.15
2023-04-30T08:05:15.993Z,1011.15
2023-04-30T08:06:16.048Z,1011.18
2023-04-30T08:07:17.011Z,1011.11
2023-04-30T08:08:16.000Z,1011.14
2023-04-30T08:09:15.977Z,1011.12
2023-04-30T08:10:15.968Z,1011.05
2023-04-30T08:11:15.961Z,1011.03
2023-04-30T08:12:15.940Z,1011.06
2023-04-30T08:13:15.925Z,1011.11
2023-04-30T08:14:15.905Z,1011.06
2023-04-30T08:15:16.918Z,1011.03
2023-04-30T08:16:15.950Z,1011.03
2023-04-30T08:17:15.880Z,1011.04
2023-04-30T08:18:16.959Z,1011.05
2023-04-30T08:19:15.862Z,1011.09
2023-04-30T08:20:15.858Z,1011.09
2023-04-30T08:21:15.891Z,1011.05
2023-04-30T08:22:15.825Z,1011.11
2023-04-30T08:23:15.815Z,1011.07
2023-04-30T08:24:15.807Z,1011.03
2023-04-30T08:25:15.800Z,1011.08
2023-04-30T08:26:15.797Z,1011.07
2023-04-30T08:27:15.804Z,1011.08
2023-04-30T08:28:15.756Z,1011.20
2023-04-30T08:29:15.776Z,1011.09
2023-04-30T08:30:15.744Z,1011.16
2023-04-30T08:31:16.780Z,1011.14
2023-04-30T08:32:15.772Z,1011.12
2023-04-30T08:33:15.834Z,1011.16
2023-04-30T08:34:15.723Z,1011.10
2023-04-30T08:35:15.682Z,1011.08
2023-04-30T08:36:15.674Z,1011.10
2023-04-30T08:37:15.674Z,1011.08
2023-04-30T08:38:15.666Z,1011.17
2023-04-30T08:39:16.654Z,1011.13
2023-04-30T08:40:15.612Z,1011.08
2023-04-30T08:41:15.622Z,1011.12
2023-04-30T08:42:15.611Z,1011.11
2023-04-30T08:43:15.603Z,1011.08
2023-04-30T08:44:15.596Z,1011.06
2023-04-30T08:45:15.575Z,1011.15
2023-04-30T08:46:15.570Z,1011.04
2023-04-30T08:47:15.667Z,1011.14
2023-04-30T08:48:15.548Z,1011.05
2023-04-30T08:49:15.546Z,1011.06
2023-04-30T08:50:15.538Z,1011.10
2023-04-30T08:51:15.507Z,1011.04
2023-04-30T08:52:15.492Z,1011.10
2023-04-30T08:53:15.476Z,1011.10
2023-04-30T08:54:15.475Z,1011.06
2023-04-30T08:55:16.501Z,1011.11
2023-04-30T08:56:15.457Z,1011.06
2023-04-30T08:57:15.424Z,1011.10
2023-04-30T08:58:15.433Z,1011.11
2023-04-30T08:59:15.402Z,1011.07
2023-04-30T09:00:15.413Z,1011.04
2023-04-30T09:01:16.544Z,1011.00
2023-04-30T09:02:16.530Z,1010.98
2023-04-30T09:03:15.431Z,1010.97
2023-04-30T09:04:15.447Z,1011.02
2023-04-30T09:05:16.229Z,1010.99
2023-04-30T09:06:15.422Z,1011.01
2023-04-30T09:07:15.355Z,1011.07
2023-04-30T09:08:15.323Z,1011.07
2023-04-30T09:09:15.301Z,1011.00
2023-04-30T09:10:15.292Z,1011.06
2023-04-30T09:11:15.316Z,1011.09
2023-04-30T09:12:17.848Z,1011.03
2023-04-30T09:13:15.295Z,1011.11
2023-04-30T09:14:16.249Z,1011.04
2023-04-30T09:15:16.240Z,1011.11
2023-04-30T09:16:16.266Z,1011.03
2023-04-30T09:17:15.226Z,1011.05
2023-04-30T09:18:16.381Z,1011.02
2023-04-30T09:19:15.194Z,1011.02
2023-04-30T09:20:15.197Z,1011.02
2023-04-30T09:21:15.160Z,1010.99
2023-04-30T09:22:15.217Z,1011.00
2023-04-30T09:23:15.164Z,1011.01
2023-04-30T09:24:16.595Z,1010.99
2023-04-30T09:25:15.115Z,1011.02
2023-04-30T09:26:15.120Z,1011.01
2023-04-30T09:27:15.120Z,1011.03
2023-04-30T09:28:15.096Z,1011.00
2023-04-30T09:29:15.092Z,1011.00
2023-04-30T09:30:16.079Z,1010.94
2023-04-30T09:31:15.388Z,1011.00
2023-04-30T09:32:15.049Z,1010.95
2023-04-30T09:33:15.066Z,1010.95
2023-04-30T09:34:15.080Z,1010.94
2023-04-30T09:35:15.088Z,1010.93
2023-04-30T09:36:15.021Z,1010.94
2023-04-30T09:37:16.014Z,1010.94
2023-04-30T09:38:15.006Z,1010.95
2023-04-30T09:39:16.076Z,1010.91
2023-04-30T09:40:14.983Z,1011.00
2023-04-30T09:41:15.008Z,1010.89
2023-04-30T09:42:14.945Z,1010.96
2023-04-30T09:43:14.917Z,1010.96
2023-04-30T09:44:15.922Z,1010.96
2023-04-30T09:45:14.924Z,1010.96
2023-04-30T09:46:14.949Z,1010.99
2023-04-30T09:47:14.899Z,1010.96
2023-04-30T09:48:17.711Z,1010.93
2023-04-30T09:49:14.881Z,1010.89
2023-04-30T09:50:14.850Z,1010.91
2023-04-30T09:51:14.869Z,1010.90
2023-04-30T09:52:14.852Z,1010.89
2023-04-30T09:53:14.835Z,1010.95
2023-04-30T09:54:14.883Z,1010.92
2023-04-30T09:55:14.807Z,1010.88
2023-04-30T09:56:15.803Z,1010.89
2023-04-30T09:57:14.789Z,1010.96
2023-04-30T09:58:14.777Z,1010.89
2023-04-30T09:59:14.772Z,1010.87
2023-04-30T10:00:14.773Z,1010.98
2023-04-30T10:01:14.777Z,1010.98
2023-04-30T10:02:14.742Z,1010.91
2023-04-30T10:03:14.740Z,1010.90
2023-04-30T10:04:14.724Z,1010.92
2023-04-30T10:05:14.727Z,1010.99
2023-04-30T10:06:14.756Z,1010.95
2023-04-30T10:07:16.311Z,1010.89
2023-04-30T10:08:16.205Z,1010.93
2023-04-30T10:09:14.681Z,1010.84
2023-04-30T10:10:14.671Z,1010.98
2023-04-30T10:11:14.622Z,1010.82
2023-04-30T10:12:14.626Z,1010.79
2023-04-30T10:13:14.636Z,1010.85
2023-04-30T10:14:14.585Z,1010.78
2023-04-30T10:15:15.613Z,1010.84
2023-04-30T10:16:14.584Z,1010.78
2023-04-30T10:17:14.575Z,1010.83
2023-04-30T10:18:14.570Z,1010.77
2023-04-30T10:19:14.561Z,1010.78
2023-04-30T10:20:15.537Z,1010.76
2023-04-30T10:21:14.516Z,1010.77
2023-04-30T10:22:14.516Z,1010.76
2023-04-30T10:23:14.493Z,1010.76
2023-04-30T10:24:14.540Z,1010.77
2023-04-30T10:25:14.532Z,1010.81
2023-04-30T10:26:14.474Z,1010.80
2023-04-30T10:27:14.436Z,1010.79
2023-04-30T10:28:14.424Z,1010.80
2023-04-30T10:29:14.432Z,1010.74
2023-04-30T10:30:15.463Z,1010.70
2023-04-30T10:31:14.405Z,1010.72
2023-04-30T10:32:15.434Z,1010.67
2023-04-30T10:33:16.678Z,1010.69
2023-04-30T10:34:14.404Z,1010.75
2023-04-30T10:35:14.396Z,1010.67
2023-04-30T10:36:14.359Z,1010.66
2023-04-30T10:37:14.362Z,1010.60
2023-04-30T10:38:14.336Z,1010.54
2023-04-30T10:39:14.324Z,1010.58
2023-04-30T10:40:14.328Z,1010.58
2023-04-30T10:41:14.295Z,1010.61
2023-04-30T10:42:14.318Z,1010.63
2023-04-30T10:43:14.265Z,1010.60
2023-04-30T10:44:14.268Z,1010.56
2023-04-30T10:45:14.246Z,1010.56
2023-04-30T10:46:14.353Z,1010.54
2023-04-30T10:47:15.245Z,1010.58
2023-04-30T10:48:14.243Z,1010.54
2023-04-30T10:49:14.208Z,1010.51
2023-04-30T10:50:14.351Z,1010.49
2023-04-30T10:51:14.214Z,1010.52
2023-04-30T10:52:14.189Z,1010.49
2023-04-30T10:53:14.156Z,1010.52
2023-04-30T10:54:14.157Z,1010.49
2023-04-30T10:55:15.143Z,1010.45
2023-04-30T10:56:14.161Z,1010.43
2023-04-30T10:57:14.178Z,1010.38
2023-04-30T10:58:14.129Z,1010.47
2023-04-30T10:59:14.130Z,1010.40
2023-04-30T11:00:14.135Z,1010.38
2023-04-30T11:01:14.085Z,1010.40
2023-04-30T11:02:14.072Z,1010.37
2023-04-30T11:03:14.083Z,1010.40
2023-04-30T11:04:14.076Z,1010.43
2023-04-30T11:05:14.146Z,1010.44
2023-04-30T11:06:15.073Z,1010.48
2023-04-30T11:07:14.017Z,1010.51
2023-04-30T11:08:14.027Z,1010.45
2023-04-30T11:09:14.004Z,1010.42
2023-04-30T11:10:14.974Z,1010.40
2023-04-30T11:11:13.996Z,1010.38
2023-04-30T11:12:13.947Z,1010.38
2023-04-30T11:13:13.948Z,1010.34
2023-04-30T11:14:13.964Z,1010.38
2023-04-30T11:15:13.943Z,1010.34
2023-04-30T11:16:13.950Z,1010.26
2023-04-30T11:17:13.906Z,1010.30
2023-04-30T11:18:13.894Z,1010.36
2023-04-30T11:19:13.931Z,1010.28
2023-04-30T11:20:13.878Z,1010.25
2023-04-30T11:21:13.907Z,1010.22
2023-04-30T11:22:13.853Z,1010.22
2023-04-30T11:23:17.413Z,1010.23
2023-04-30T11:24:14.815Z,1010.25
2023-04-30T11:25:13.800Z,1010.24
2023-04-30T11:26:14.813Z,1010.26
2023-04-30T11:27:13.821Z,1010.22
2023-04-30T11:28:13.822Z,1010.20
2023-04-30T11:29:13.839Z,1010.23
2023-04-30T11:30:13.783Z,1010.16
2023-04-30T11:31:15.346Z,1010.16
2023-04-30T11:32:13.753Z,1010.16
2023-04-30T11:33:13.716Z,1010.24
2023-04-30T11:34:13.761Z,1010.15
2023-04-30T11:35:14.704Z,1010.13
2023-04-30T11:36:13.692Z,1010.17
2023-04-30T11:37:13.698Z,1010.11
2023-04-30T11:38:13.698Z,1010.10
2023-04-30T11:39:13.722Z,1010.14
2023-04-30T11:40:13.728Z,1010.05
2023-04-30T11:41:13.634Z,1010.13
2023-04-30T11:42:13.643Z,1010.09
2023-04-30T11:43:13.662Z,1010.03
2023-04-30T11:44:13.621Z,1010.19
2023-04-30T11:45:13.578Z,1010.14
2023-04-30T11:46:13.701Z,1010.20
2023-04-30T11:47:13.566Z,1010.16
2023-04-30T11:48:14.669Z,1010.13
2023-04-30T11:49:13.582Z,1010.14
2023-04-30T11:50:13.528Z,1010.17
2023-04-30T11:51:13.537Z,1010.13
2023-04-30T11:52:14.532Z,1010.13
2023-04-30T11:53:13.506Z,1010.06
2023-04-30T11:54:13.528Z,1010.10
2023-04-30T11:55:14.496Z,1010.12
2023-04-30T11:56:13.484Z,1010.05
2023-04-30T11:57:13.485Z,1010.05
2023-04-30T11:58:13.447Z,1010.04
2023-04-30T11:59:13.438Z,1010.02
2023-04-30T12:00:13.450Z,1010.11
2023-04-30T12:01:13.402Z,1010.05
2023-04-30T12:02:13.724Z,1010.10
2023-04-30T12:03:13.508Z,1010.05
2023-04-30T12:04:13.561Z,1010.10
2023-04-30T12:05:13.365Z,1010.01